Time;durP1;ratioP1;P1;durP2;ratioP2;P2;SDS_P1;SDS_P2;PMS_P1;PMS_P2;Temp;Humidity;BMP_temperature;BMP_pressure;BME280_temperature;BME280_humidity;BME280_pressure;Samples;Min_cycle;Max_cycle;Signal;HPM_P1;HPM_P2
2022/11/04 00:02:00;;;;;;;24.23;14.10;;;24.20;43.60;;;;;;6200242;28;83157;-64
2022/11/04 00:05:00;;;;;;;22.00;13.52;;;24.20;43.50;;;;;;6189360;28;83311;-66
2022/11/04 00:14:40;;;;;;;24.48;13.70;;;24.20;43.60;;;;;;6194678;28;83299;-66
2022/11/04 00:17:40;;;;;;;20.75;13.00;;;24.20;43.50;;;;;;6195483;28;88834;-69
2022/11/04 00:33:24;;;;;;;22.05;13.88;;;24.20;43.50;;;;;;6172187;28;84137;-65
2022/11/04 00:34:18;;;;;;;21.50;13.43;;;24.20;43.50;;;;;;6171200;28;83280;-67
2022/11/04 00:37:19;;;;;;;23.65;13.25;;;24.20;43.50;;;;;;6173120;28;83164;-66
2022/11/04 00:40:19;;;;;;;23.90;12.90;;;24.20;43.60;;;;;;6172813;28;84715;-65
2022/11/04 00:43:20;;;;;;;22.05;12.57;;;24.20;43.60;;;;;;6162084;28;83382;-67
2022/11/04 00:46:20;;;;;;;23.33;13.52;;;24.20;43.50;;;;;;6173607;28;83123;-67
2022/11/04 00:49:21;;;;;;;21.83;13.35;;;24.10;43.50;;;;;;6173400;28;86762;-67
2022/11/04 00:52:21;;;;;;;23.52;12.40;;;24.10;43.60;;;;;;6173811;28;83009;-67
2022/11/04 00:55:22;;;;;;;24.25;13.23;;;24.10;43.60;;;;;;6171918;28;86535;-67
2022/11/04 00:58:22;;;;;;;22.38;13.30;;;24.10;43.60;;;;;;6176323;28;83020;-67
2022/11/04 01:01:23;;;;;;;23.63;12.32;;;24.10;43.60;;;;;;6172196;28;83800;-69
2022/11/04 01:04:23;;;;;;;20.33;12.52;;;24.10;43.60;;;;;;6169581;28;82998;-67
2022/11/04 01:07:24;;;;;;;21.85;12.32;;;24.10;43.60;;;;;;6173940;28;83426;-67
2022/11/04 01:10:24;;;;;;;22.50;12.77;;;24.10;43.70;;;;;;6171222;28;83198;-68
2022/11/04 01:13:25;;;;;;;20.75;12.57;;;24.10;43.70;;;;;;6171219;28;83725;-66
2022/11/04 01:16:26;;;;;;;21.08;12.15;;;24.10;43.80;;;;;;6193982;28;87566;-65
2022/11/04 01:19:26;;;;;;;23.77;12.13;;;24.10;43.80;;;;;;6196802;28;90398;-66
2022/11/04 01:22:27;;;;;;;21.33;12.75;;;24.10;43.80;;;;;;6190083;28;83640;-65
2022/11/04 01:25:27;;;;;;;20.65;11.93;;;24.10;43.90;;;;;;6196315;28;89061;-66
2022/11/04 01:28:28;;;;;;;18.23;11.68;;;24.10;43.90;;;;;;6197607;28;83073;-67
2022/11/04 01:31:28;;;;;;;17.52;11.48;;;24.10;43.90;;;;;;6196421;28;82960;-68
2022/11/04 01:34:29;;;;;;;19.80;12.02;;;24.10;43.90;;;;;;6197125;28;82856;-66
2022/11/04 01:37:29;;;;;;;18.35;11.38;;;24.10;43.90;;;;;;6179471;28;84493;-65
2022/11/04 01:40:30;;;;;;;20.88;12.30;;;24.10;43.90;;;;;;6190033;28;85195;-65
2022/11/04 01:43:30;;;;;;;18.02;12.15;;;24.10;43.80;;;;;;6197615;28;87750;-64
2022/11/04 01:46:31;;;;;;;19.85;11.73;;;24.10;43.80;;;;;;6184348;28;83358;-63
2022/11/04 01:49:32;;;;;;;18.63;11.60;;;24.10;43.80;;;;;;6198556;28;83574;-64
2022/11/04 01:52:32;;;;;;;18.20;11.23;;;24.10;43.80;;;;;;6193045;28;90144;-64
2022/11/04 01:55:33;;;;;;;18.30;10.77;;;24.10;43.90;;;;;;6200100;28;83963;-65
2022/11/04 01:58:33;;;;;;;19.08;10.90;;;24.10;43.80;;;;;;6196067;28;83476;-66
2022/11/04 02:01:34;;;;;;;17.80;10.70;;;24.10;43.80;;;;;;6194069;28;83308;-65
2022/11/04 02:04:34;;;;;;;20.83;10.82;;;24.10;43.80;;;;;;6194668;28;83171;-65
2022/11/04 02:07:35;;;;;;;17.23;11.18;;;24.10;43.80;;;;;;6198482;28;83435;-65
2022/11/04 02:10:36;;;;;;;18.30;11.27;;;24.10;43.80;;;;;;6193464;28;82847;-67
2022/11/04 02:13:36;;;;;;;16.50;10.18;;;24.10;43.80;;;;;;6195686;28;82788;-64
2022/11/04 02:16:37;;;;;;;14.57;10.25;;;24.10;43.80;;;;;;6193821;28;83202;-66
2022/11/04 02:19:38;;;;;;;17.27;10.40;;;24.10;43.80;;;;;;6196090;28;83699;-66
2022/11/04 02:22:38;;;;;;;25.60;10.52;;;24.10;43.80;;;;;;6186814;28;86376;-66
2022/11/04 02:25:39;;;;;;;18.55;10.93;;;24.10;43.80;;;;;;6191569;28;84069;-66
2022/11/04 02:28:39;;;;;;;18.95;10.90;;;24.00;43.70;;;;;;6194702;28;85832;-66
2022/11/04 02:31:40;;;;;;;18.55;10.68;;;24.00;43.70;;;;;;6193579;28;87415;-64
2022/11/04 02:34:40;;;;;;;16.80;10.63;;;24.00;43.70;;;;;;6196622;28;85012;-66
2022/11/04 02:37:41;;;;;;;19.67;11.05;;;24.00;43.70;;;;;;6197495;28;84439;-66
2022/11/04 02:40:41;;;;;;;18.17;11.07;;;24.00;43.80;;;;;;6197557;28;83198;-67
2022/11/04 02:43:42;;;;;;;22.23;10.77;;;24.00;43.70;;;;;;6194539;28;83129;-66
2022/11/04 02:46:42;;;;;;;18.13;11.02;;;24.00;43.60;;;;;;6198361;28;84166;-66
2022/11/04 02:49:43;;;;;;;17.00;10.32;;;24.00;43.70;;;;;;6192890;28;89290;-58
2022/11/04 02:52:43;;;;;;;14.50;9.48;;;24.00;43.70;;;;;;6194085;28;83678;-57
2022/11/04 02:55:44;;;;;;;15.32;9.65;;;24.00;43.70;;;;;;6197193;28;84036;-57
2022/11/04 02:58:44;;;;;;;16.98;10.05;;;24.00;43.80;;;;;;6200864;28;80928;-57
2022/11/04 03:01:45;;;;;;;16.45;10.18;;;24.00;43.70;;;;;;6195258;28;84790;-57
2022/11/04 03:04:45;;;;;;;18.35;10.10;;;24.00;43.90;;;;;;6195918;28;85817;-59
2022/11/04 03:07:46;;;;;;;19.13;10.27;;;24.00;43.90;;;;;;6191106;28;83010;-59
2022/11/04 03:10:46;;;;;;;15.65;10.05;;;24.00;43.80;;;;;;6173377;28;83850;-58
2022/11/04 03:13:47;;;;;;;15.88;9.82;;;24.00;43.80;;;;;;6174842;28;83103;-56
2022/11/04 03:16:47;;;;;;;13.30;8.90;;;24.00;43.90;;;;;;6184503;28;83201;-58
2022/11/04 03:19:48;;;;;;;16.45;9.15;;;24.00;44.00;;;;;;6155949;28;80607;-58
2022/11/04 03:22:48;;;;;;;15.65;9.02;;;24.00;43.80;;;;;;6168633;28;81512;-59
2022/11/04 03:25:49;;;;;;;15.65;9.80;;;24.00;43.80;;;;;;6206015;28;80779;-59
2022/11/04 03:28:49;;;;;;;14.65;9.15;;;24.00;43.90;;;;;;6177713;28;81129;-58
2022/11/04 03:31:50;;;;;;;13.70;8.85;;;24.00;43.90;;;;;;6177172;28;80372;-56
2022/11/04 03:34:50;;;;;;;13.77;9.48;;;24.00;43.90;;;;;;6174931;28;88087;-57
2022/11/04 03:37:51;;;;;;;17.17;9.45;;;24.00;43.90;;;;;;6143354;28;80321;-59
2022/11/04 03:40:51;;;;;;;20.60;10.05;;;24.00;43.90;;;;;;6173867;28;80707;-57
2022/11/04 03:43:52;;;;;;;15.90;9.40;;;24.00;43.90;;;;;;6148668;28;86371;-66
2022/11/04 03:46:52;;;;;;;12.90;8.85;;;24.00;43.90;;;;;;6165163;28;81837;-65
2022/11/04 03:49:53;;;;;;;13.50;9.07;;;24.00;43.90;;;;;;6154370;28;83916;-66
2022/11/04 03:52:53;;;;;;;12.18;8.63;;;24.00;43.90;;;;;;6153361;28;80618;-68
2022/11/04 03:55:54;;;;;;;15.05;9.73;;;24.00;43.90;;;;;;6151141;28;81967;-65
2022/11/04 03:58:54;;;;;;;13.32;9.23;;;24.00;44.00;;;;;;6154777;28;80293;-67
2022/11/04 04:01:55;;;;;;;15.27;8.95;;;24.00;43.90;;;;;;6150915;28;80324;-66
2022/11/04 04:04:55;;;;;;;16.27;10.50;;;24.00;43.90;;;;;;6152109;28;80919;-67
2022/11/04 04:07:56;;;;;;;15.00;8.93;;;24.00;44.00;;;;;;6146921;28;87624;-66
2022/11/04 04:10:56;;;;;;;16.00;9.98;;;24.00;43.90;;;;;;6150239;28;83179;-63
2022/11/04 04:13:57;;;;;;;14.52;8.77;;;24.00;43.90;;;;;;6148723;28;84191;-65
2022/11/04 04:16:57;;;;;;;14.30;9.05;;;24.00;44.00;;;;;;6124028;28;84037;-66
2022/11/04 04:19:58;;;;;;;14.85;8.95;;;24.00;44.00;;;;;;6162940;28;81841;-68
2022/11/04 04:22:58;;;;;;;12.50;8.07;;;24.00;44.10;;;;;;6118762;28;81679;-61
2022/11/04 04:29:18;;;;;;;12.45;7.90;;;24.10;44.40;;;;;;6152740;28;81417;-64
2022/11/04 04:32:18;;;;;;;11.68;8.20;;;24.10;44.50;;;;;;6142172;28;80502;-63
2022/11/04 04:45:17;;;;;;;10.98;6.97;;;24.30;44.60;;;;;;6149882;28;82049;-69
2022/11/04 04:48:17;;;;;;;12.40;7.28;;;24.30;44.60;;;;;;6135665;28;81075;-67
2022/11/04 04:51:18;;;;;;;13.77;7.82;;;24.30;44.60;;;;;;6142095;28;82359;-66
2022/11/04 04:54:18;;;;;;;13.27;7.78;;;24.40;44.50;;;;;;6149683;28;80395;-71
2022/11/04 04:57:19;;;;;;;10.63;6.63;;;24.40;44.60;;;;;;6148978;28;81410;-66
2022/11/04 05:00:19;;;;;;;11.98;6.40;;;24.40;44.70;;;;;;6148513;28;82287;-66
2022/11/04 05:03:20;;;;;;;12.13;7.18;;;24.40;44.80;;;;;;6147196;28;81061;-65
2022/11/04 05:06:20;;;;;;;11.15;7.13;;;24.40;44.70;;;;;;6151027;28;80812;-65
2022/11/04 05:09:21;;;;;;;11.00;6.55;;;24.50;45.20;;;;;;6149502;28;80737;-67
2022/11/04 05:12:21;;;;;;;14.07;7.28;;;24.50;45.30;;;;;;6152891;28;80317;-73
2022/11/04 05:15:22;;;;;;;11.27;6.82;;;24.50;45.40;;;;;;6163032;28;80672;-63
2022/11/04 05:18:22;;;;;;;12.35;5.82;;;24.60;45.30;;;;;;6209371;28;80841;-64
2022/11/04 05:21:23;;;;;;;10.77;6.35;;;24.60;45.50;;;;;;6199043;28;81120;-62
2022/11/04 05:24:23;;;;;;;9.25;6.20;;;24.60;45.50;;;;;;6192353;28;81351;-61
2022/11/04 05:27:24;;;;;;;10.82;6.13;;;24.60;45.50;;;;;;6199095;28;84292;-60
2022/11/04 05:30:24;;;;;;;9.02;5.88;;;24.60;45.60;;;;;;6204194;28;80550;-61
2022/11/04 05:33:25;;;;;;;13.25;6.85;;;24.60;45.60;;;;;;6207475;28;80911;-72
2022/11/04 05:36:25;;;;;;;10.00;6.40;;;24.60;45.60;;;;;;6202157;28;81355;-71
2022/11/04 05:39:26;;;;;;;13.43;7.13;;;24.60;45.40;;;;;;6210700;28;86867;-68
2022/11/04 05:42:28;;;;;;;13.32;6.35;;;24.60;45.40;;;;;;6177985;28;80772;-62
2022/11/04 05:45:28;;;;;;;9.77;5.95;;;24.60;45.30;;;;;;6176744;28;84598;-63
2022/11/04 05:48:29;;;;;;;11.77;6.38;;;24.60;45.20;;;;;;6188309;28;81411;-65
2022/11/04 05:51:29;;;;;;;13.70;6.35;;;24.60;45.30;;;;;;6172541;28;80846;-73
2022/11/04 05:54:30;;;;;;;13.88;6.18;;;24.60;45.50;;;;;;6192256;28;83586;-72
2022/11/04 05:57:30;;;;;;;11.55;6.28;;;24.60;45.50;;;;;;6193413;28;80582;-66
2022/11/04 06:00:31;;;;;;;11.73;5.75;;;24.50;45.30;;;;;;6192657;28;81355;-72
2022/11/04 06:03:31;;;;;;;12.38;6.25;;;24.50;45.40;;;;;;6172237;28;80553;-72
2022/11/04 06:06:32;;;;;;;8.80;5.38;;;24.40;45.10;;;;;;6159799;28;84907;-72
2022/11/04 06:09:39;;;;;;;12.40;6.35;;;24.40;45.10;;;;;;6149353;28;84927;-74
2022/11/04 06:12:39;;;;;;;11.43;6.53;;;24.40;44.80;;;;;;6173379;28;82287;-73
2022/11/04 06:15:39;;;;;;;11.80;6.47;;;24.40;44.80;;;;;;6168341;28;83630;-81
2022/11/04 06:18:40;;;;;;;10.15;6.43;;;24.40;44.70;;;;;;6169650;28;80495;-75
2022/11/04 06:21:41;;;;;;;10.93;6.65;;;24.30;44.90;;;;;;6178742;28;82332;-70
2022/11/04 06:24:41;;;;;;;11.32;7.03;;;24.30;45.00;;;;;;5969484;28;83011;-69
2022/11/04 06:27:43;;;;;;;10.13;6.57;;;24.30;44.80;;;;;;6112212;28;82874;-69
2022/11/04 06:30:43;;;;;;;9.82;6.88;;;24.30;44.80;;;;;;6166183;28;80972;-68
2022/11/04 06:33:44;;;;;;;13.45;6.25;;;24.30;44.50;;;;;;6171727;28;83955;-66
2022/11/04 06:36:44;;;;;;;12.18;6.75;;;24.30;44.60;;;;;;6171383;28;85318;-67
2022/11/04 06:39:45;;;;;;;11.20;7.10;;;24.30;44.20;;;;;;6186423;28;85344;-66
2022/11/04 06:42:45;;;;;;;13.02;6.57;;;24.20;44.20;;;;;;6171128;28;80628;-65
2022/11/04 06:45:46;;;;;;;11.15;7.10;;;24.20;44.00;;;;;;6171859;28;80700;-66
2022/11/04 06:48:46;;;;;;;12.52;7.43;;;24.20;44.00;;;;;;6174644;28;80249;-64
2022/11/04 06:51:47;;;;;;;12.45;7.35;;;24.20;43.90;;;;;;6195081;28;81366;-67
2022/11/04 06:54:48;;;;;;;13.90;7.22;;;24.20;43.90;;;;;;6195325;28;82513;-68
2022/11/04 06:57:48;;;;;;;12.95;7.78;;;24.20;43.90;;;;;;6197431;28;80964;-68
2022/11/04 07:00:49;;;;;;;14.68;7.75;;;24.20;43.80;;;;;;6177827;28;80917;-69
2022/11/04 07:03:49;;;;;;;11.40;7.32;;;24.20;43.70;;;;;;6173364;28;85481;-71
2022/11/04 07:06:50;;;;;;;14.15;7.70;;;24.20;43.70;;;;;;6151151;28;82207;-68
2022/11/04 07:09:50;;;;;;;13.45;7.78;;;24.20;43.70;;;;;;6191616;28;80329;-69
2022/11/04 07:12:51;;;;;;;11.55;7.57;;;24.30;43.70;;;;;;6178346;28;80493;-68
2022/11/04 07:15:51;;;;;;;12.77;7.13;;;24.30;43.80;;;;;;6171053;28;82428;-69
2022/11/04 07:18:52;;;;;;;15.68;7.20;;;24.40;43.80;;;;;;6172298;28;80429;-67
2022/11/04 07:21:52;;;;;;;11.32;6.55;;;24.40;43.70;;;;;;6194178;28;81165;-70
2022/11/04 07:24:53;;;;;;;12.80;7.50;;;24.40;43.70;;;;;;6177346;28;81291;-66
2022/11/04 07:27:54;;;;;;;13.52;6.88;;;24.50;43.70;;;;;;6170853;28;80802;-67
2022/11/04 07:30:54;;;;;;;16.75;6.97;;;24.60;43.60;;;;;;6191109;28;86463;-70
2022/11/04 07:33:55;;;;;;;9.52;6.57;;;24.60;43.60;;;;;;6200366;28;80881;-68
2022/11/04 07:36:55;;;;;;;10.80;6.53;;;24.60;43.60;;;;;;6196265;28;80806;-67
2022/11/04 07:39:56;;;;;;;13.13;7.28;;;24.70;43.60;;;;;;6199274;28;81274;-67
2022/11/04 07:42:56;;;;;;;13.48;6.00;;;24.70;43.60;;;;;;6192968;28;80491;-60
2022/11/04 07:46:08;;;;;;;13.07;6.88;;;24.80;43.50;;;;;;6170473;28;83269;-61
2022/11/04 07:49:10;;;;;;;12.25;7.45;;;24.90;43.30;;;;;;6172462;28;83482;-60
2022/11/04 07:52:10;;;;;;;16.27;7.28;;;24.90;43.30;;;;;;6199658;28;81743;-58
2022/11/04 07:55:17;;;;;;;15.23;6.72;;;24.90;43.40;;;;;;6195702;28;80921;-61
2022/11/04 07:58:17;;;;;;;17.38;7.10;;;24.90;43.40;;;;;;6192400;28;84764;-61
2022/11/04 08:01:18;;;;;;;12.05;6.85;;;25.00;43.30;;;;;;6194213;28;81974;-62
2022/11/04 08:04:18;;;;;;;13.98;7.20;;;25.10;43.30;;;;;;6197210;28;83262;-62
2022/11/04 08:07:19;;;;;;;11.88;6.25;;;25.20;43.20;;;;;;6211338;28;83513;-62
2022/11/04 08:10:19;;;;;;;13.30;6.90;;;25.20;43.10;;;;;;6192450;28;80323;-63
2022/11/04 08:13:20;;;;;;;11.63;6.68;;;25.30;43.00;;;;;;6188228;28;80633;-61
2022/11/04 08:16:20;;;;;;;12.40;7.00;;;25.20;43.10;;;;;;6191421;28;84007;-62
2022/11/04 08:19:21;;;;;;;10.32;6.72;;;25.20;43.30;;;;;;6197936;28;80929;-61
2022/11/04 08:22:21;;;;;;;11.15;6.85;;;25.10;43.40;;;;;;6195550;28;80911;-60
2022/11/04 08:25:22;;;;;;;10.73;6.88;;;25.10;43.40;;;;;;6201585;28;81038;-61
2022/11/04 08:28:23;;;;;;;13.55;7.15;;;25.10;43.40;;;;;;6175676;28;81549;-61
2022/11/04 08:31:24;;;;;;;13.90;7.13;;;25.00;43.40;;;;;;6180886;28;82192;-61
2022/11/04 08:34:24;;;;;;;15.60;6.80;;;25.10;43.50;;;;;;6195236;28;80362;-60
2022/11/04 08:37:25;;;;;;;11.55;6.50;;;25.10;43.40;;;;;;6193332;28;83132;-61
2022/11/04 08:40:25;;;;;;;10.18;6.47;;;25.10;43.20;;;;;;6195903;28;80904;-61
2022/11/04 08:43:26;;;;;;;9.02;5.93;;;25.20;43.10;;;;;;6202243;28;83632;-61
2022/11/04 08:46:26;;;;;;;10.43;6.53;;;25.30;43.00;;;;;;6199753;28;80355;-61
2022/11/04 08:49:27;;;;;;;9.93;5.65;;;25.40;42.90;;;;;;6179474;28;81111;-62
2022/11/04 08:52:27;;;;;;;9.85;6.10;;;25.50;42.90;;;;;;6196839;28;87818;-62
2022/11/04 08:55:28;;;;;;;9.38;5.90;;;25.60;42.80;;;;;;6202688;28;80438;-61
2022/11/04 08:58:28;;;;;;;12.93;6.50;;;25.60;42.80;;;;;;6196673;28;85783;-62
2022/11/04 09:01:29;;;;;;;10.98;6.20;;;25.70;42.80;;;;;;6198832;28;81126;-63
2022/11/04 09:04:29;;;;;;;12.23;6.90;;;25.70;42.80;;;;;;6196513;28;84387;-62
2022/11/04 09:07:30;;;;;;;10.75;6.43;;;25.70;42.80;;;;;;6195686;28;82802;-62
2022/11/04 09:10:30;;;;;;;9.75;6.05;;;25.80;42.80;;;;;;6191797;28;81845;-62
2022/11/04 09:13:31;;;;;;;10.23;6.05;;;25.70;43.00;;;;;;6200454;28;81434;-58
2022/11/04 09:16:31;;;;;;;10.23;6.10;;;25.70;42.80;;;;;;6199368;28;81017;-64
2022/11/04 09:19:32;;;;;;;14.13;6.57;;;25.70;42.90;;;;;;6197152;28;80850;-61
2022/11/04 09:22:32;;;;;;;11.05;5.75;;;25.70;42.80;;;;;;6196637;28;80542;-62
2022/11/04 09:25:33;;;;;;;12.10;6.65;;;25.80;42.50;;;;;;6195215;28;81091;-65
2022/11/04 09:28:33;;;;;;;10.48;6.18;;;25.90;42.00;;;;;;6199134;28;83369;-66
2022/11/04 09:31:34;;;;;;;10.45;5.63;;;25.90;41.70;;;;;;6197283;28;81019;-65
2022/11/04 09:34:34;;;;;;;10.05;5.82;;;25.90;41.40;;;;;;6199767;28;80348;-58
2022/11/04 09:37:35;;;;;;;12.52;6.15;;;25.90;41.50;;;;;;6189267;28;81805;-59
2022/11/04 09:40:36;;;;;;;11.43;5.88;;;25.90;41.20;;;;;;6193534;28;82235;-60
2022/11/04 09:43:37;;;;;;;9.98;5.55;;;25.90;41.20;;;;;;6200364;28;80909;-59
2022/11/04 09:46:37;;;;;;;10.98;5.80;;;25.90;41.00;;;;;;6176394;28;80154;-59
2022/11/04 09:49:38;;;;;;;9.32;6.15;;;25.90;40.90;;;;;;6198919;28;80611;-59
2022/11/04 09:52:38;;;;;;;8.52;5.70;;;25.90;41.00;;;;;;6183592;28;81983;-70
2022/11/04 09:55:40;;;;;;;11.80;5.88;;;26.00;41.10;;;;;;6192596;28;81370;-68
2022/11/04 09:58:41;;;;;;;9.07;5.20;;;26.10;41.30;;;;;;6190563;28;80370;-67
2022/11/04 10:01:41;;;;;;;11.93;5.78;;;26.20;41.30;;;;;;6197150;28;83900;-66
2022/11/04 10:04:42;;;;;;;10.70;5.82;;;26.20;40.90;;;;;;6199586;28;80336;-67
2022/11/04 10:07:43;;;;;;;10.50;5.93;;;26.30;41.10;;;;;;6197492;28;80409;-63
2022/11/04 10:10:44;;;;;;;10.73;5.65;;;26.30;41.20;;;;;;6202144;28;80895;-61
2022/11/04 10:13:45;;;;;;;8.75;5.43;;;26.30;40.90;;;;;;6195638;28;80522;-60
2022/11/04 10:16:46;;;;;;;12.63;5.78;;;26.40;40.90;;;;;;6199257;28;80720;-62
2022/11/04 10:19:46;;;;;;;9.35;5.30;;;26.50;41.50;;;;;;6201722;28;81527;-59
2022/11/04 10:22:47;;;;;;;10.80;6.55;;;26.60;40.80;;;;;;6198290;28;81255;-60
2022/11/04 10:25:49;;;;;;;9.15;5.25;;;26.70;40.70;;;;;;6182483;28;81769;-61
2022/11/04 10:28:49;;;;;;;10.40;5.45;;;26.70;40.70;;;;;;6171848;28;83633;-61
2022/11/04 10:31:50;;;;;;;12.65;6.15;;;26.80;40.50;;;;;;6172318;28;80588;-61
2022/11/04 10:34:50;;;;;;;8.27;5.95;;;26.90;40.40;;;;;;6174674;28;85900;-60
2022/11/04 10:37:51;;;;;;;10.75;5.63;;;26.90;40.50;;;;;;6168808;28;82776;-60
2022/11/04 10:40:51;;;;;;;10.88;6.15;;;26.90;40.60;;;;;;6171843;28;83356;-60
2022/11/04 10:43:52;;;;;;;11.20;6.13;;;26.90;40.40;;;;;;6171592;28;80526;-61
2022/11/04 10:46:52;;;;;;;12.00;5.70;;;26.90;40.80;;;;;;6175341;28;80609;-60
2022/11/04 10:49:53;;;;;;;11.25;6.65;;;26.90;40.10;;;;;;6173246;28;80695;-60
2022/11/04 10:52:53;;;;;;;10.15;6.82;;;26.90;40.10;;;;;;6174351;28;80211;-59
2022/11/04 10:55:54;;;;;;;9.32;5.82;;;26.90;40.20;;;;;;6188207;28;80246;-60
2022/11/04 10:58:55;;;;;;;11.20;6.00;;;26.90;40.20;;;;;;6191297;28;80550;-59
2022/11/04 11:01:55;;;;;;;9.63;6.28;;;26.90;40.30;;;;;;6186036;28;80626;-60
2022/11/04 11:04:56;;;;;;;11.77;6.50;;;26.80;40.30;;;;;;6172848;28;80890;-61
2022/11/04 11:07:57;;;;;;;9.20;5.93;;;26.60;40.50;;;;;;6171697;28;81122;-60
2022/11/04 11:10:57;;;;;;;11.77;6.57;;;26.50;40.60;;;;;;6187273;28;80677;-59
2022/11/04 11:13:58;;;;;;;11.27;6.85;;;26.40;40.70;;;;;;6186321;28;80723;-60
2022/11/04 11:16:58;;;;;;;11.77;6.18;;;26.30;40.70;;;;;;6172467;28;83453;-61
2022/11/04 11:19:59;;;;;;;10.38;6.25;;;26.20;41.00;;;;;;6184961;28;85607;-60
2022/11/04 11:23:00;;;;;;;14.00;5.55;;;26.10;41.10;;;;;;6180902;28;82154;-59
2022/11/04 11:26:00;;;;;;;9.00;5.78;;;26.10;41.30;;;;;;6172580;28;80917;-60
2022/11/04 11:29:02;;;;;;;9.57;5.72;;;26.00;41.40;;;;;;6169234;28;80471;-59
2022/11/04 11:32:03;;;;;;;11.15;6.25;;;25.90;41.50;;;;;;6169306;28;81060;-59
2022/11/04 11:35:03;;;;;;;8.27;5.55;;;25.80;41.40;;;;;;6173864;28;80547;-60
2022/11/04 11:38:06;;;;;;;14.63;6.43;;;25.70;41.50;;;;;;6176473;28;80742;-60
2022/11/04 11:41:06;;;;;;;12.38;6.10;;;25.70;41.80;;;;;;6177114;28;80639;-60
2022/11/04 11:44:07;;;;;;;12.75;5.72;;;25.70;41.70;;;;;;6176470;28;80966;-60
2022/11/04 11:47:07;;;;;;;10.38;6.30;;;25.60;41.80;;;;;;6157052;28;81429;-60
2022/11/04 11:50:08;;;;;;;10.13;5.93;;;25.60;41.90;;;;;;6174896;28;84500;-60
2022/11/04 11:53:08;;;;;;;14.55;6.95;;;25.50;41.80;;;;;;6189514;28;83534;-66
2022/11/04 11:56:10;;;;;;;11.90;6.15;;;25.50;41.90;;;;;;6179489;28;80622;-61
2022/11/04 11:59:14;;;;;;;12.02;5.85;;;25.40;42.20;;;;;;6192998;28;83190;-62
2022/11/04 12:02:15;;;;;;;12.05;6.50;;;25.40;42.20;;;;;;6183341;28;81300;-64
2022/11/04 12:05:18;;;;;;;13.18;6.50;;;25.40;42.30;;;;;;6184664;28;83651;-68
2022/11/04 12:08:18;;;;;;;14.98;7.47;;;25.30;42.30;;;;;;6178555;28;80961;-69
2022/11/04 12:11:19;;;;;;;15.88;7.07;;;25.30;42.40;;;;;;6169221;28;80080;-67
2022/11/04 12:14:19;;;;;;;12.98;6.72;;;25.20;42.10;;;;;;6176954;28;81504;-69
2022/11/04 12:17:20;;;;;;;10.95;6.70;;;25.10;42.50;;;;;;6175401;28;85037;-70
2022/11/04 12:20:20;;;;;;;13.98;7.13;;;25.00;42.40;;;;;;6160200;28;80286;-71
2022/11/04 12:23:21;;;;;;;11.50;6.68;;;25.00;42.40;;;;;;6158931;28;80946;-66
2022/11/04 12:26:23;;;;;;;15.38;7.38;;;25.10;42.60;;;;;;6165546;28;80614;-66
2022/11/04 12:29:26;;;;;;;14.05;6.78;;;25.00;42.70;;;;;;6185997;28;80897;-66
2022/11/04 12:32:26;;;;;;;13.20;6.57;;;25.10;42.60;;;;;;6174807;28;80916;-67
2022/11/04 12:35:27;;;;;;;12.82;6.85;;;25.10;42.50;;;;;;6134510;28;86327;-66
2022/11/04 12:38:28;;;;;;;12.85;6.88;;;25.10;42.20;;;;;;6161265;28;86059;-62
2022/11/04 12:41:28;;;;;;;13.30;6.63;;;25.10;42.30;;;;;;6186302;28;82855;-62
2022/11/04 12:44:29;;;;;;;14.90;6.78;;;25.10;42.40;;;;;;6174142;28;80765;-63
2022/11/04 12:47:29;;;;;;;11.68;6.05;;;25.10;42.30;;;;;;6176491;28;80919;-61
2022/11/04 12:50:30;;;;;;;11.55;6.78;;;25.10;42.30;;;;;;6171512;28;80853;-63
2022/11/04 12:53:30;;;;;;;18.95;6.95;;;25.10;42.40;;;;;;6169265;28;80629;-63
2022/11/04 12:56:36;;;;;;;10.38;6.05;;;25.10;42.30;;;;;;6170514;28;82930;-64
2022/11/04 12:59:36;;;;;;;14.80;6.15;;;24.90;42.40;;;;;;6166720;28;81401;-64
2022/11/04 13:02:38;;;;;;;9.77;6.50;;;24.90;42.40;;;;;;6170267;28;80842;-62
2022/11/04 13:05:39;;;;;;;11.90;5.60;;;24.90;42.50;;;;;;6169018;28;80240;-64
2022/11/04 13:08:40;;;;;;;11.60;5.97;;;24.80;42.50;;;;;;6167216;28;81229;-64
2022/11/04 13:11:40;;;;;;;11.63;5.45;;;24.80;42.40;;;;;;6172180;28;80504;-62
2022/11/04 13:14:41;;;;;;;12.48;6.32;;;24.80;42.50;;;;;;6194879;28;81456;-74
2022/11/04 13:17:42;;;;;;;10.65;6.05;;;24.70;42.70;;;;;;6176516;28;80857;-67
2022/11/04 13:20:43;;;;;;;9.52;6.25;;;24.80;42.70;;;;;;6185471;28;81075;-67
2022/11/04 13:23:44;;;;;;;11.73;5.88;;;24.70;42.40;;;;;;6174173;28;87187;-65
2022/11/04 13:26:44;;;;;;;10.18;6.22;;;24.70;42.30;;;;;;6164327;28;82976;-65
2022/11/04 13:29:45;;;;;;;9.27;5.63;;;24.60;42.30;;;;;;6167091;28;80471;-67
2022/11/04 13:32:47;;;;;;;12.05;6.18;;;24.60;42.30;;;;;;6168870;28;81113;-65
2022/11/04 13:35:47;;;;;;;11.60;5.53;;;24.60;42.50;;;;;;6162261;28;80559;-67
2022/11/04 13:38:49;;;;;;;10.75;6.45;;;24.60;42.60;;;;;;6167600;28;80978;-66
2022/11/04 13:41:49;;;;;;;12.00;5.85;;;24.50;42.60;;;;;;6196167;28;80871;-68
2022/11/04 13:44:50;;;;;;;13.02;6.97;;;24.60;42.80;;;;;;6178239;28;80948;-69
2022/11/04 13:47:51;;;;;;;10.43;6.47;;;24.50;42.70;;;;;;6166797;28;84443;-61
2022/11/04 13:50:52;;;;;;;13.63;7.28;;;24.50;42.80;;;;;;6189159;28;80275;-60
2022/11/04 13:53:52;;;;;;;16.63;8.60;;;24.50;43.00;;;;;;6167952;28;80806;-58
2022/11/04 13:56:52;;;;;;;11.15;6.03;;;24.50;43.30;;;;;;6158708;28;80958;-58
2022/11/04 13:59:53;;;;;;;15.40;6.55;;;24.60;43.40;;;;;;6158699;28;82140;-59
2022/11/04 14:02:54;;;;;;;14.60;7.60;;;24.60;43.30;;;;;;6157518;28;81109;-59
2022/11/04 14:05:55;;;;;;;14.88;6.63;;;24.60;43.50;;;;;;6158664;28;81539;-60
2022/11/04 14:08:55;;;;;;;13.77;6.72;;;24.60;43.40;;;;;;6172615;28;80694;-63
2022/11/04 14:11:56;;;;;;;14.90;6.45;;;24.60;43.60;;;;;;6177510;28;80854;-61
2022/11/04 14:14:56;;;;;;;12.20;7.25;;;24.60;43.50;;;;;;6174566;28;80736;-61
2022/11/04 14:17:57;;;;;;;15.10;6.40;;;24.60;43.60;;;;;;6171990;28;80474;-62
2022/11/04 14:20:57;;;;;;;10.02;6.15;;;24.60;43.70;;;;;;6197385;28;80320;-62
2022/11/04 14:23:59;;;;;;;15.77;6.93;;;24.60;43.70;;;;;;6201493;28;80595;-62
2022/11/04 14:26:59;;;;;;;15.18;7.45;;;24.60;44.00;;;;;;6199376;28;80970;-57
2022/11/04 14:30:00;;;;;;;20.10;7.55;;;24.60;44.20;;;;;;6181149;28;81821;-59
2022/11/04 14:33:01;;;;;;;13.27;6.53;;;24.60;44.70;;;;;;6203142;28;80706;-54
2022/11/04 14:36:02;;;;;;;16.27;7.38;;;24.60;45.30;;;;;;6187510;28;83309;-59
2022/11/04 14:39:03;;;;;;;13.57;7.75;;;24.60;46.80;;;;;;6190220;28;81614;-57
2022/11/04 14:42:05;;;;;;;12.82;7.78;;;24.60;45.90;;;;;;6199513;28;80634;-60
2022/11/04 14:45:05;;;;;;;12.75;7.63;;;24.60;45.70;;;;;;6175970;28;81236;-58
2022/11/04 14:48:06;;;;;;;16.38;8.23;;;24.60;45.70;;;;;;6196042;28;80666;-60
2022/11/04 14:51:06;;;;;;;20.90;8.10;;;24.60;45.50;;;;;;6157444;28;81420;-58
2022/11/04 14:54:07;;;;;;;13.27;8.40;;;24.60;45.30;;;;;;6160612;28;80537;-66
2022/11/04 14:57:07;;;;;;;20.40;8.45;;;24.60;45.40;;;;;;6167849;28;80507;-58
2022/11/04 15:00:08;;;;;;;20.30;9.02;;;24.60;45.30;;;;;;6195503;28;80852;-59
2022/11/04 15:03:08;;;;;;;16.85;8.65;;;24.60;45.10;;;;;;6163992;28;81431;-60
2022/11/04 15:06:09;;;;;;;16.77;9.07;;;24.60;44.90;;;;;;6137977;28;84054;-60
2022/11/04 15:09:10;;;;;;;21.05;10.15;;;24.60;44.90;;;;;;6166367;28;81425;-60
2022/11/04 15:15:30;;;;;;;22.95;12.32;;;24.60;44.80;;;;;;6193899;28;86436;-58
2022/11/04 15:18:30;;;;;;;21.45;12.18;;;24.60;44.80;;;;;;6198295;28;82956;-56
2022/11/04 15:21:31;;;;;;;21.83;12.60;;;24.60;45.20;;;;;;6195608;28;84548;-62
2022/11/04 15:24:31;;;;;;;27.95;12.65;;;24.50;45.20;;;;;;6195177;28;88726;-65
2022/11/04 15:27:33;;;;;;;19.60;11.55;;;24.50;45.20;;;;;;6201178;28;83462;-67
2022/11/04 15:30:33;;;;;;;24.98;12.07;;;24.50;45.20;;;;;;6196812;28;83154;-69
2022/11/04 15:33:34;;;;;;;25.55;13.00;;;24.50;45.00;;;;;;6198225;28;83641;-65
2022/11/04 15:36:34;;;;;;;24.33;12.65;;;24.50;45.00;;;;;;6194748;28;85005;-63
2022/11/04 15:39:35;;;;;;;23.15;12.18;;;24.40;44.90;;;;;;6176708;28;84170;-65
2022/11/04 15:42:36;;;;;;;23.20;12.52;;;24.40;44.90;;;;;;6191864;28;84603;-62
2022/11/04 15:45:36;;;;;;;24.70;11.85;;;24.40;44.90;;;;;;6199150;28;83755;-64
2022/11/04 15:48:38;;;;;;;30.75;12.68;;;24.40;44.90;;;;;;6202802;28;84590;-67
2022/11/04 15:51:39;;;;;;;23.83;12.98;;;24.40;45.40;;;;;;6198130;28;84479;-66
2022/11/04 15:54:39;;;;;;;19.73;11.57;;;24.40;45.40;;;;;;6171250;28;88001;-66
2022/11/04 15:57:40;;;;;;;23.20;12.10;;;24.40;45.30;;;;;;6190698;28;88249;-64
2022/11/04 16:00:41;;;;;;;25.52;11.95;;;24.50;45.30;;;;;;6177382;28;83593;-59